Time;durP1;ratioP1;P1;durP2;ratioP2;P2;SDS_P1;SDS_P2;PMS_P1;PMS_P2;Temp;Humidity;BMP_temperature;BMP_pressure;BME280_temperature;BME280_humidity;BME280_pressure;Samples;Min_cycle;Max_cycle;Signal;HPM_P1;HPM_P2
2024/01/27 00:08:26;;;;;;;3.6;1.9;;;;;;;4.54;88.2;98931.666666667;;;;
2024/01/27 00:18:26;;;;;;;2.4;1.5;;;;;;;4.49;88.66;98995;;;;
2024/01/27 00:29:26;;;;;;;2.4;1.5;;;;;;;4.61;87.98;99026.666666667;;;;
2024/01/27 00:40:26;;;;;;;2.4;1.5;;;;;;;4.56;85.19;99040;;;;
2024/01/27 00:51:26;;;;;;;2.1;1.1;;;;;;;4.45;86.33;99066.666666667;;;;
2024/01/27 01:02:26;;;;;;;2.1;1.1;;;;;;;4.3;86.3;99091.666666667;;;;
2024/01/27 01:12:26;;;;;;;2.1;1.1;;;;;;;4.32;85;99081.666666667;;;;
2024/01/27 01:23:26;;;;;;;3.8;1.4;;;;;;;4.18;84.06;99101.666666667;;;;
2024/01/27 01:34:26;;;;;;;3.8;1.4;;;;;;;4.23;81.94;99113.333333333;;;;
2024/01/27 01:44:26;;;;;;;3.8;1.4;;;;;;;4.26;81.08;99123.333333333;;;;
2024/01/27 01:55:26;;;;;;;4.4;2;;;;;;;4.21;80.61;99133.333333333;;;;
2024/01/27 02:06:26;;;;;;;4.4;2;;;;;;;4.25;81.4;99128.333333333;;;;
2024/01/27 02:17:26;;;;;;;3.9;2;;;;;;;4.21;80.67;99143.333333333;;;;
2024/01/27 02:27:26;;;;;;;3.9;2;;;;;;;3.92;83.66;99138.333333333;;;;
2024/01/27 02:38:26;;;;;;;3.9;2;;;;;;;3.54;85.63;99145;;;;
2024/01/27 02:48:26;;;;;;;4.9;2.1;;;;;;;3.58;84.72;99143.333333333;;;;
2024/01/27 02:59:26;;;;;;;4.9;2.1;;;;;;;3.67;82.43;99146.666666667;;;;
2024/01/27 03:10:26;;;;;;;4.9;2.1;;;;;;;3.75;78.94;99156.666666667;;;;
2024/01/27 03:21:26;;;;;;;4.9;2.9;;;;;;;3.85;78.07;99178.333333333;;;;
2024/01/27 03:31:26;;;;;;;4.9;2.9;;;;;;;3.96;75.96;99198.333333333;;;;
2024/01/27 03:41:26;;;;;;;4.9;2.9;;;;;;;4.03;75.81;99200;;;;
2024/01/27 03:52:26;;;;;;;4.5;1.6;;;;;;;4.05;74.85;99200;;;;
2024/01/27 04:02:26;;;;;;;4.5;1.6;;;;;;;4.02;75.9;99220;;;;
2024/01/27 04:12:26;;;;;;;4.5;1.6;;;;;;;3.82;81.01;99251.666666667;;;;
2024/01/27 04:23:26;;;;;;;4.5;1.9;;;;;;;3.28;82.38;99236.666666667;;;;
2024/01/27 04:34:26;;;;;;;4.5;1.9;;;;;;;3.23;83.17;99260;;;;
2024/01/27 04:44:26;;;;;;;3.8;1.4;;;;;;;3.03;85.7;99266.666666667;;;;
2024/01/27 04:54:26;;;;;;;3.8;1.4;;;;;;;3.19;85.64;99275;;;;
2024/01/27 05:04:26;;;;;;;3.8;1.4;;;;;;;3.19;84.9;99266.666666667;;;;
2024/01/27 05:14:26;;;;;;;6.8;2.2;;;;;;;3.23;83.73;99266.666666667;;;;
2024/01/27 05:25:26;;;;;;;6.8;2.2;;;;;;;3.31;82.28;99275;;;;
2024/01/27 05:36:26;;;;;;;6.8;2.2;;;;;;;3.12;82.59;99285;;;;
2024/01/27 05:47:26;;;;;;;6.6;2.3;;;;;;;3.13;82.41;99290;;;;
2024/01/27 05:57:26;;;;;;;6.6;2.3;;;;;;;3.22;81.18;99296.666666667;;;;
2024/01/27 06:07:26;;;;;;;6.6;2.3;;;;;;;3.24;80.18;99300;;;;
2024/01/27 06:18:26;;;;;;;4.3;1.8;;;;;;;3.35;78.43;99318.333333333;;;;
2024/01/27 06:28:27;;;;;;;4.3;1.8;;;;;;;3.47;76.67;99330;;;;
2024/01/27 06:39:26;;;;;;;4.3;1.8;;;;;;;3.52;75.56;99346.666666667;;;;
2024/01/27 06:50:26;;;;;;;11.1;2.4;;;;;;;3.56;74.44;99350;;;;
2024/01/27 07:01:26;;;;;;;11.1;2.4;;;;;;;3.59;74.29;99371.666666667;;;;
2024/01/27 07:12:26;;;;;;;11.1;2.4;;;;;;;3.68;73.84;99370;;;;
2024/01/27 07:23:26;;;;;;;3.6;1.8;;;;;;;3.72;73.57;99366.666666667;;;;
2024/01/27 07:33:26;;;;;;;3.6;1.8;;;;;;;3.74;73.23;99368.333333333;;;;
2024/01/27 07:43:26;;;;;;;3.6;1.8;;;;;;;3.75;72.79;99365;;;;
2024/01/27 07:53:26;;;;;;;5.1;2;;;;;;;3.73;72.81;99370;;;;
2024/01/27 08:04:26;;;;;;;5.1;2;;;;;;;3.78;72.47;99368.333333333;;;;
2024/01/27 08:14:26;;;;;;;4.3;2;;;;;;;3.83;72.25;99366.666666667;;;;
2024/01/27 08:24:26;;;;;;;4.3;2;;;;;;;3.83;71.24;99366.666666667;;;;
2024/01/27 08:35:26;;;;;;;4.3;2;;;;;;;3.86;71.74;99383.333333333;;;;
2024/01/27 08:45:26;;;;;;;5.8;2.4;;;;;;;3.79;71.75;99381.666666667;;;;
2024/01/27 08:55:26;;;;;;;5.8;2.4;;;;;;;3.81;71.08;99391.666666667;;;;
2024/01/27 09:06:26;;;;;;;5.8;2.4;;;;;;;3.83;72.19;99393.333333333;;;;
2024/01/27 09:16:26;;;;;;;5.5;2.4;;;;;;;3.86;71.74;99403.333333333;;;;
2024/01/27 09:26:26;;;;;;;5.5;2.4;;;;;;;3.79;74.82;99420;;;;
2024/01/27 09:37:26;;;;;;;5.5;2.4;;;;;;;2.97;80.88;99446.666666667;;;;
2024/01/27 09:48:26;;;;;;;7.4;2.6;;;;;;;2.71;83.87;99460;;;;
2024/01/27 09:59:26;;;;;;;7.4;2.6;;;;;;;2.71;84.81;99451.666666667;;;;
2024/01/27 10:10:26;;;;;;;7.4;2.6;;;;;;;2.51;85.71;99445;;;;
2024/01/27 10:20:26;;;;;;;8.9;3.1;;;;;;;2.48;86.4;99446.666666667;;;;
2024/01/27 10:31:26;;;;;;;8.9;3.1;;;;;;;2.43;86.68;99448.333333333;;;;
2024/01/27 10:41:27;;;;;;;8.9;3.1;;;;;;;2.14;88.15;99440;;;;
2024/01/27 10:52:28;;;;;;;8.2;3;;;;;;;2.02;88.8;99445;;;;
2024/01/27 11:02:26;;;;;;;8.2;3;;;;;;;2.06;89.02;99440;;;;
2024/01/27 11:12:26;;;;;;;8.2;3;;;;;;;2.16;89.34;99446.666666667;;;;
2024/01/27 11:22:26;;;;;;;8.6;3.2;;;;;;;2.23;89.36;99455;;;;
2024/01/27 11:33:26;;;;;;;8.6;3.2;;;;;;;2.25;89.29;99456.666666667;;;;
2024/01/27 11:44:26;;;;;;;12.2;3.8;;;;;;;2.4;88.83;99463.333333333;;;;
2024/01/27 11:55:26;;;;;;;12.2;3.8;;;;;;;2.4;89;99461.666666667;;;;
2024/01/27 12:05:26;;;;;;;12.2;3.8;;;;;;;2.49;88.85;99480;;;;
2024/01/27 12:15:26;;;;;;;12.4;4.1;;;;;;;2.6;89;99478.333333333;;;;
2024/01/27 12:26:26;;;;;;;12.4;4.1;;;;;;;2.51;89.15;99480;;;;
2024/01/27 12:37:26;;;;;;;12.4;4.1;;;;;;;2.45;90.06;99496.666666667;;;;
2024/01/27 12:47:26;;;;;;;8.8;4.7;;;;;;;2.49;89.66;99515;;;;
2024/01/27 12:57:26;;;;;;;8.8;4.7;;;;;;;2.48;89.8;99513.333333333;;;;
2024/01/27 13:08:26;;;;;;;8.8;4.7;;;;;;;2.41;90.16;99521.666666667;;;;
2024/01/27 13:19:26;;;;;;;9.7;4.7;;;;;;;2.47;90.16;99535;;;;
2024/01/27 13:30:28;;;;;;;9.7;4.7;;;;;;;2.49;89.98;99555;;;;
2024/01/27 13:40:26;;;;;;;9.7;4.7;;;;;;;2.43;90.32;99553.333333333;;;;
2024/01/27 13:50:26;;;;;;;10.8;4.2;;;;;;;2.54;90.45;99563.333333333;;;;
2024/01/27 14:01:26;;;;;;;10.8;4.2;;;;;;;2.7;90.4;99576.666666667;;;;
2024/01/27 14:11:26;;;;;;;10.8;4.2;;;;;;;2.8;90.24;99590;;;;
2024/01/27 14:21:28;;;;;;;6.4;3.6;;;;;;;2.8;90.13;99611.666666667;;;;
2024/01/27 14:32:27;;;;;;;6.4;3.6;;;;;;;2.81;89.92;99630;;;;
2024/01/27 14:42:26;;;;;;;6.4;3.6;;;;;;;2.8;90.38;99640;;;;
2024/01/27 14:53:27;;;;;;;10.8;4.3;;;;;;;2.79;90.39;99658.333333333;;;;
2024/01/27 15:03:26;;;;;;;10.8;4.3;;;;;;;2.69;90.75;99675;;;;
2024/01/27 15:14:27;;;;;;;8.1;4.5;;;;;;;2.67;91.21;99691.666666667;;;;
2024/01/27 15:25:26;;;;;;;8.1;4.5;;;;;;;2.7;91.52;99713.333333333;;;;
2024/01/27 15:36:26;;;;;;;8.1;4.5;;;;;;;2.61;91.96;99741.666666667;;;;
2024/01/27 15:46:26;;;;;;;12.3;5.9;;;;;;;2.59;92.01;99760;;;;
2024/01/27 15:57:27;;;;;;;12.3;5.9;;;;;;;2.67;92.11;99778.333333333;;;;
2024/01/27 16:08:26;;;;;;;12.3;5.9;;;;;;;2.63;92.42;99800;;;;
2024/01/27 16:19:26;;;;;;;14.9;5.8;;;;;;;2.74;92.27;99821.666666667;;;;
2024/01/27 16:30:26;;;;;;;14.9;5.8;;;;;;;2.86;92.2;99831.666666667;;;;
2024/01/27 16:41:26;;;;;;;14.9;5.8;;;;;;;2.85;92.27;99841.666666667;;;;
2024/01/27 16:51:26;;;;;;;17.2;7.8;;;;;;;2.84;92.25;99855;;;;
2024/01/27 17:02:26;;;;;;;17.2;7.8;;;;;;;2.88;92.1;99870;;;;
2024/01/27 17:12:26;;;;;;;17.2;7.8;;;;;;;2.99;92.09;99880;;;;
2024/01/27 17:22:26;;;;;;;13.9;7.8;;;;;;;3;91.86;99898.333333333;;;;
2024/01/27 17:33:27;;;;;;;13.9;7.8;;;;;;;3.04;91.79;99903.333333333;;;;
2024/01/27 17:43:26;;;;;;;18;9.2;;;;;;;3.07;91.56;99913.333333333;;;;
2024/01/27 17:53:26;;;;;;;18;9.2;;;;;;;3.04;91.25;99928.333333333;;;;
2024/01/27 18:04:27;;;;;;;18;9.2;;;;;;;3.09;90.68;99945;;;;
2024/01/27 18:14:26;;;;;;;17.8;9.4;;;;;;;3;90.49;99965;;;;
2024/01/27 18:25:26;;;;;;;17.8;9.4;;;;;;;3.03;90.18;99978.333333333;;;;
2024/01/27 18:35:26;;;;;;;17.8;9.4;;;;;;;3.02;89.9;99995;;;;
2024/01/27 18:46:26;;;;;;;17.4;8.4;;;;;;;3.1;89.45;100011.66666667;;;;
2024/01/27 18:56:26;;;;;;;17.4;8.4;;;;;;;3.13;88.96;100031.66666667;;;;
2024/01/27 19:07:26;;;;;;;17.4;8.4;;;;;;;3.25;88.42;100043.33333333;;;;
2024/01/27 19:18:26;;;;;;;15.7;8.2;;;;;;;3.36;87.96;100065;;;;
2024/01/27 19:28:26;;;;;;;15.7;8.2;;;;;;;3.33;87.68;100083.33333333;;;;
2024/01/27 19:39:26;;;;;;;15.7;8.2;;;;;;;3.44;87.19;100106.66666667;;;;
2024/01/27 19:49:27;;;;;;;12.6;7.4;;;;;;;3.46;86.73;100116.66666667;;;;
2024/01/27 19:59:26;;;;;;;12.6;7.4;;;;;;;3.46;85.92;100128.33333333;;;;
2024/01/27 20:10:26;;;;;;;12.6;7.4;;;;;;;3.49;85.5;100150;;;;
2024/01/27 20:21:26;;;;;;;14.2;6.4;;;;;;;3.54;84.73;100165;;;;
2024/01/27 20:31:27;;;;;;;14.2;6.4;;;;;;;3.51;84.14;100173.33333333;;;;
2024/01/27 20:42:28;;;;;;;13.5;5.9;;;;;;;3.54;83.93;100185;;;;
2024/01/27 20:53:26;;;;;;;13.5;5.9;;;;;;;3.53;82.67;100208.33333333;;;;
2024/01/27 21:04:28;;;;;;;13.5;5.9;;;;;;;3.43;82.75;100220;;;;
2024/01/27 21:14:27;;;;;;;8.3;4.2;;;;;;;3.46;82.81;100238.33333333;;;;
2024/01/27 21:25:27;;;;;;;8.3;4.2;;;;;;;3.39;83.52;100248.33333333;;;;
2024/01/27 21:35:27;;;;;;;8.3;4.2;;;;;;;3.26;83.68;100258.33333333;;;;
2024/01/27 21:45:27;;;;;;;10.8;5.5;;;;;;;3.15;83.99;100271.66666667;;;;
2024/01/27 21:56:27;;;;;;;10.8;5.5;;;;;;;3.15;83.38;100286.66666667;;;;
2024/01/27 22:06:26;;;;;;;10.8;5.5;;;;;;;3.1;83.14;100285;;;;
2024/01/27 22:16:27;;;;;;;12.5;4.3;;;;;;;3.06;82.74;100303.33333333;;;;
2024/01/27 22:27:27;;;;;;;12.5;4.3;;;;;;;2.92;82.78;100316.66666667;;;;
2024/01/27 22:38:26;;;;;;;12.5;4.3;;;;;;;2.74;82.75;100328.33333333;;;;
2024/01/27 22:48:28;;;;;;;8.5;4.5;;;;;;;2.49;82.66;100340;;;;
2024/01/27 22:58:31;;;;;;;8.5;4.5;;;;;;;2.23;82.52;100346.66666667;;;;
2024/01/27 23:09:27;;;;;;;8.5;4.5;;;;;;;2.11;83.53;100341.66666667;;;;
2024/01/27 23:20:27;;;;;;;8.7;3.7;;;;;;;1.86;85.05;100346.66666667;;;;
2024/01/27 23:31:27;;;;;;;8.7;3.7;;;;;;;1.79;85.44;100361.66666667;;;;
2024/01/27 23:42:28;;;;;;;11.4;5.1;;;;;;;1.71;85.91;100370;;;;
2024/01/27 23:53:27;;;;;;;11.4;5.1;;;;;;;1.7;86.13;100378.33333333;;;;
